Terminal Aerodrome Forecast
Issued by NWS

Home | Current Version | Previous Version | Text Only | Print | Product List | Glossary On
Versions: 1 2 3 4 5 6 7 8 9 10 11 12
000
FTUS44 KLIX 231744
TAFGPT
TAF
KGPT 231744Z 2318/2418 08003KT P6SM SCT035
     FM232000 17008KT P6SM VCSH SCT050
     FM240200 VRB03KT P6SM FEW250
     FM241400 07005KT P6SM SCT035=

USA.gov is the U.S. government's official web portal to all federal, state and local government web resources and services.